Data for 05/10/2014

Time Sea-Level Adjusted Pressure Absolute Pressure Temperature Relative Humidity Dew Point   
(mb) (inHg) (mb) (inHg) (C) (F) (%) (C) (F)
00:05 1013 29.91 842 24.86 3.5 38.4 79 0.3 32.5
00:10 1013 29.91 842 24.86 3.6 38.4 79 0.3 32.5
00:15 1013 29.91 842 24.86 3.6 38.4 79 0.2 32.3
00:20 1013 29.91 842 24.86 3.6 38.4 79 0.3 32.6
00:25 1013 29.91 842 24.86 3.5 38.3 79 0.3 32.5
00:30 1013 29.91 842 24.86 3.4 38.2 80 0.3 32.5
00:35 1013 29.91 842 24.86 3.3 38 81 0.3 32.6
00:40 1013 29.91 842 24.86 3.2 37.8 85 1 33.8
00:45 1013 29.91 842 24.86 2.8 37 87 0.8 33.4
00:50 1013 29.91 842 24.86 2.6 36.7 85 0.4 32.7
00:55 1013 29.91 842 24.86 2.9 37.2 80 -0.2 31.6
01:00 1013 29.91 842 24.86 3.4 38 79 0.1 32.1
01:05 1013 29.91 842 24.86 3.4 38.2 79 0.1 32.2
01:10 1013 29.91 842 24.86 3.5 38.3 78 0.1 32.2
01:15 1013 29.91 842 24.86 3.4 38.2 79 0.2 32.3
01:20 1013 29.91 842 24.86 3.3 37.9 79 0.1 32.1
01:25 1013 29.91 842 24.86 3.2 37.8 81 0.3 32.5
01:30 1013 29.91 842 24.86 3.2 37.7 84 0.7 33.3
01:35 1013 29.91 842 24.86 2.9 37.3 82 0.2 32.4
01:40 1013 29.91 842 24.86 2.9 37.3 82 0.1 32.3
01:45 1013 29.91 842 24.86 2.9 37.3 84 0.5 32.8
01:50 1013 29.91 842 24.86 2.5 36.5 87 0.5 32.9
01:55 1013 29.91 842 24.86 2.2 36 87 0.3 32.6
02:00 1013 29.91 842 24.86 2 35.6 89 0.3 32.6
02:05 1013 29.91 842 24.86 2 35.7 86 -0 32
02:10 1013 29.91 842 24.86 2.4 36.4 86 0.3 32.5
02:15 1013 29.91 842 24.86 2.3 36.2 87 0.4 32.8
02:20 1013 29.91 842 24.86 1.9 35.5 89 0.3 32.5
02:25 1013 29.91 842 24.86 2 35.5 86 -0.1 31.7
02:30 1013 29.91 842 24.86 2.3 36.2 84 -0.1 31.7
02:35 1013 29.91 842 24.86 2.5 36.4 83 -0.2 31.7
02:40 1013 29.91 842 24.86 2.5 36.5 84 -0 32
02:45 1013 29.91 842 24.86 2.5 36.4 83 -0.2 31.6
02:50 1013 29.91 842 24.86 2.6 36.6 82 -0.1 31.8
02:55 1013 29.91 842 24.86 2.6 36.7 82 -0.2 31.7
03:00 1013 29.91 842 24.86 2.6 36.6 82 -0.2 31.6
03:05 1013 29.91 842 24.86 2.7 36.8 81 -0.3 31.4
03:10 1013 29.91 842 24.86 2.8 37 79 -0.4 31.2
03:15 1013 29.91 842 24.86 2.8 37.1 80 -0.2 31.6
03:20 1013 29.91 842 24.86 2.7 36.9 81 -0.3 31.5
03:25 1013 29.91 842 24.86 2.8 37 80 -0.4 31.3
03:30 1013 29.91 842 24.86 2.8 37.1 79 -0.4 31.3
03:35 1013 29.91 842 24.86 2.9 37.2 80 -0.3 31.5
03:40 1013 29.91 842 24.86 2.7 36.9 81 -0.3 31.5
03:45 1013 29.91 842 24.86 2.4 36.3 82 -0.4 31.4
03:50 1013 29.91 842 24.86 2.4 36.2 82 -0.4 31.3
03:55 1013 29.91 842 24.86 2.4 36.4 81 -0.5 31.1
04:00 1013 29.91 842 24.86 2.6 36.6 79 -0.6 30.9
04:05 1013 29.91 842 24.86 2.6 36.7 79 -0.7 30.7
04:10 1013 29.91 842 24.86 2.6 36.8 78 -0.8 30.6
04:15 1013 29.91 842 24.86 2.8 37 78 -0.8 30.6
04:20 1013 29.91 842 24.86 2.9 37.2 76 -0.9 30.3
04:25 1013 29.91 842 24.86 2.9 37.3 76 -0.9 30.4
04:30 1013 29.91 842 24.86 2.9 37.2 76 -0.9 30.4
04:35 1013 29.91 842 24.86 2.7 36.9 80 -0.5 31.2
04:40 1013 29.91 842 24.86 2.5 36.5 78 -0.9 30.4
04:45 1013 29.91 842 24.86 2.4 36.3 78 -1.1 30
04:50 1013 29.91 842 24.86 2.3 36.2 83 -0.3 31.4
04:55 1013 29.91 842 24.86 2 35.6 82 -0.8 30.6
05:00 1013 29.91 842 24.86 2 35.6 81 -1 30.3
05:05 1013 29.91 842 24.86 2 35.7 83 -0.6 31
05:10 1013 29.91 842 24.86 1.7 35 85 -0.5 31
05:15 1013 29.91 842 24.86 1.3 34.4 87 -0.6 31
05:20 1013 29.91 842 24.86 1.3 34.3 87 -0.6 30.9
05:25 1013 29.91 842 24.86 1.4 34.6 87 -0.5 31
05:30 1013 29.91 842 24.86 1.8 35.3 84 -0.6 30.9
05:35 1013 29.91 842 24.86 2.2 35.9 82 -0.6 31
05:40 1013 29.91 842 24.86 2.2 36 83 -0.4 31.3
05:45 1013 29.91 842 24.86 1.6 34.9 86 -0.5 31.1
05:50 1013 29.91 842 24.86 1.7 35.1 84 -0.8 30.6
05:55 1013 29.91 842 24.86 2 35.6 84 -0.5 31.1
06:00 1013 29.91 842 24.86 2.1 35.7 84 -0.4 31.2
06:05 1013 29.91 842 24.86 2.1 35.7 83 -0.5 31.1
06:10 1013 29.91 842 24.86 2.3 36.2 81 -0.5 31
06:15 1013 29.91 842 24.86 2.9 37.2 80 -0.3 31.5
06:20 1013 29.91 842 24.86 3.2 37.8 77 -0.4 31.2
06:25 1013 29.91 842 24.86 3.4 38.1 77 -0.2 31.7
06:30 1013 29.91 842 24.86 4.2 39.5 75 0.1 32.1
06:35 1013 29.91 842 24.86 4.3 39.7 76 0.4 32.7
06:40 1013 29.91 842 24.86 3.7 38.7 79 0.4 32.7
06:45 1013 29.91 842 24.86 3.5 38.3 80 0.4 32.7
06:50 1013 29.91 842 24.86 3.5 38.2 78 0.1 32.1
06:55 1013 29.91 842 24.86 3.4 38.1 79 0.1 32.1
07:00 1013 29.91 842 24.86 3.3 37.9 80 0.1 32.2
07:05 1013 29.91 842 24.86 3.3 38 83 0.7 33.2
07:10 1013 29.91 842 24.86 3.5 38.3 78 -0 31.9
07:15 1013 29.91 842 24.86 3.6 38.5 76 -0.2 31.7
07:20 1013 29.91 842 24.86 3.9 39 76 -0 32
07:25 1013 29.91 842 24.86 3.9 39 75 -0.2 31.7
07:30 1013 29.91 842 24.86 4.3 39.7 72 -0.3 31.4
07:35 1013 29.91 842 24.86 4.8 40.6 72 0.1 32.1
07:40 1013 29.91 842 24.86 5.3 41.6 65 -0.6 30.9
07:45 1013 29.91 842 24.86 5.8 42.4 67 0 32
07:50 1013 29.91 842 24.86 6 42.7 69 0.6 33.2
07:55 1013 29.91 842 24.86 6.3 43.4 64 0 32.1
08:00 1013 29.91 842 24.86 6 42.8 68 0.6 33.1
08:05 1013 29.91 842 24.86 6.1 43 64 -0.2 31.7
08:10 1013 29.91 842 24.86 6.2 43.2 63 -0.3 31.4
08:15 1013 29.91 842 24.86 6 42.8 60 -1.2 29.9
08:20 1013 29.91 842 24.86 5.5 41.9 63 -0.8 30.5
08:25 1013 29.91 842 24.86 5.3 41.5 60 -1.7 28.9
08:30 1013 29.91 842 24.86 5.2 41.4 62 -1.5 29.3
08:35 1013 29.91 842 24.86 5.3 41.5 62 -1.4 29.4
08:40 1013 29.91 842 24.86 5.6 42.1 59 -1.8 28.8
08:45 1013 29.91 842 24.86 5.7 42.3 62 -0.9 30.4
08:50 1013 29.91 842 24.86 6.6 43.8 56 -1.5 29.2
08:55 1013 29.91 842 24.86 6.3 43.3 56 -1.9 28.7
09:00 1013 29.91 842 24.86 7.2 44.9 53 -1.9 28.7
09:05 1013 29.91 842 24.86 7.3 45.1 51 -2.2 28
09:10 1013 29.91 842 24.86 7.5 45.5 49 -2.4 27.7
09:15 1013 29.91 842 24.86 8.3 46.9 46 -2.7 27.1
09:20 1013 29.91 842 24.86 7.9 46.3 45 -3.2 26.2
09:25 1012 29.88 842 24.86 7.4 45.3 46 -3.6 25.6
09:30 1012 29.88 842 24.86 7.8 46.1 43 -3.9 25
09:35 1012 29.88 842 24.86 7.8 46 45 -3.4 25.9
09:40 1012 29.88 841 24.83 7.4 45.2 44 -4.1 24.7
09:45 1012 29.88 841 24.83 8 46.4 42 -4 24.8
09:50 1012 29.88 841 24.83 8.3 46.9 40 -4.7 23.6
09:55 1012 29.88 841 24.83 8.9 47.9 40 -3.9 25
10:00 1012 29.88 841 24.83 8.4 47.2 43 -3.5 25.7
10:05 1012 29.88 841 24.83 8.8 47.9 41 -3.7 25.4
10:10 1012 29.88 841 24.83 8.1 46.6 46 -2.9 26.8
10:15 1012 29.88 841 24.83 8.1 46.5 44 -3.3 26
10:20 1012 29.88 841 24.83 8.4 47.1 46 -2.6 27.4
10:25 1012 29.88 841 24.83 8.5 47.4 45 -2.7 27.2
10:30 1012 29.88 841 24.83 8.8 47.9 44 -2.6 27.3
10:35 1012 29.88 841 24.83 8.9 48.1 45 -2.3 27.8
10:40 1012 29.88 841 24.83 9 48.2 46 -1.9 28.6
10:45 1012 29.88 841 24.83 8.8 47.8 46 -2.2 28
10:50 1012 29.88 841 24.83 8.1 46.6 48 -2.2 28.1
10:55 1012 29.88 841 24.83 7.5 45.4 51 -1.9 28.6
11:00 1012 29.88 841 24.83 7.6 45.6 49 -2.4 27.7
11:05 1012 29.88 841 24.83 8.5 47.3 46 -2.3 27.8
11:10 1012 29.88 841 24.83 7.5 45.5 51 -1.9 28.7
11:15 1012 29.88 841 24.83 7.2 44.9 54 -1.5 29.4
11:20 1012 29.88 841 24.83 6.9 44.4 59 -0.6 31
11:25 1012 29.88 841 24.83 6.6 43.9 63 -0 31.9
11:30 1012 29.88 841 24.83 6.9 44.3 61 -0 32
11:35 1012 29.88 841 24.83 6.6 43.8 60 -0.7 30.7
11:40 1012 29.88 841 24.83 6.6 43.8 58 -1.2 29.9
11:45 1012 29.88 841 24.83 6.4 43.6 56 -1.7 28.9
11:50 1012 29.88 841 24.83 6.7 44.1 54 -1.9 28.6
11:55 1012 29.88 841 24.83 6.8 44.2 56 -1.4 29.4
12:00 1012 29.88 841 24.83 6.8 44.3 55 -1.7 28.9
12:05 1012 29.88 841 24.83 6.9 44.4 53 -2.1 28.2
12:10 1012 29.88 841 24.83 6.9 44.5 53 -1.9 28.5
12:15 1012 29.88 841 24.83 6.9 44.4 54 -1.8 28.7
12:20 1012 29.88 841 24.83 6.9 44.5 59 -0.5 31.1
12:25 1012 29.88 842 24.86 5.7 42.2 66 -0.1 31.8
12:30 1012 29.88 842 24.86 4.5 40.1 77 0.8 33.5
12:35 1012 29.88 842 24.86 3.7 38.7 82 0.9 33.5
12:40 1012 29.88 842 24.86 3.3 37.9 82 0.5 32.9
12:45 1012 29.88 842 24.86 3.1 37.6 83 0.5 32.9
12:50 1012 29.88 842 24.86 3.2 37.8 83 0.6 33.1
12:55 1012 29.88 842 24.86 3.3 37.9 83 0.7 33.2
13:00 1013 29.91 842 24.86 3.2 37.8 84 0.8 33.4
13:05 1013 29.91 842 24.86 3.4 38.1 83 0.7 33.3
13:10 1013 29.91 842 24.86 3.2 37.7 85 1 33.7
13:15 1013 29.91 842 24.86 3.1 37.6 85 0.7 33.3
13:20 1013 29.91 842 24.86 2.9 37.2 86 0.8 33.4
13:25 1013 29.91 842 24.86 2.9 37.1 87 0.9 33.6
13:30 1013 29.91 842 24.86 3 37.3 88 1.1 34
13:35 1013 29.91 842 24.86 3.1 37.6 86 1 33.9
13:40 1013 29.91 842 24.86 3.2 37.7 87 1.2 34.2
13:45 1013 29.91 842 24.86 3.4 38.1 86 1.2 34.2
13:50 1013 29.91 842 24.86 3.3 37.9 85 1 33.8
13:55 1013 29.91 842 24.86 3.4 38.2 84 1 33.9
14:00 1013 29.91 842 24.86 3.6 38.4 84 1.2 34.1
14:05 1013 29.91 842 24.86 3.7 38.6 82 0.9 33.6
14:10 1013 29.91 842 24.86 3.5 38.4 83 0.9 33.6
14:15 1013 29.91 842 24.86 3.6 38.6 84 1.2 34.1
14:20 1013 29.91 842 24.86 3.8 38.9 81 0.9 33.6
14:25 1013 29.91 842 24.86 3.8 38.8 81 0.8 33.4
14:30 1013 29.91 842 24.86 3.9 39 83 1.3 34.3
14:35 1013 29.91 842 24.86 4.1 39.3 81 1.1 34
14:40 1013 29.91 842 24.86 4.2 39.6 78 0.7 33.3
14:45 1013 29.91 842 24.86 4 39.3 83 1.4 34.6
14:50 1013 29.91 843 24.89 3.7 38.7 83 1.2 34.1
14:55 1013 29.91 843 24.89 3.7 38.6 84 1.2 34.1
15:00 1013 29.91 843 24.89 3.8 38.8 84 1.3 34.3
15:05 1013 29.91 843 24.89 4.1 39.4 85 1.8 35.2
15:10 1013 29.91 843 24.89 4.1 39.3 84 1.5 34.8
15:15 1014 29.94 843 24.89 3.9 39 83 1.2 34.2
15:20 1014 29.94 843 24.89 4 39.1 86 1.8 35.3
15:25 1014 29.94 843 24.89 4.1 39.3 83 1.4 34.6
15:30 1014 29.94 843 24.89 4 39.3 83 1.4 34.5
15:35 1014 29.94 843 24.89 4.1 39.3 83 1.4 34.4
15:40 1014 29.94 843 24.89 4.2 39.5 83 1.6 34.9
15:45 1014 29.94 843 24.89 4.2 39.6 83 1.5 34.7
15:50 1014 29.94 843 24.89 4.2 39.6 83 1.6 34.9
15:55 1014 29.94 843 24.89 3.9 38.9 84 1.5 34.6
16:00 1014 29.94 843 24.89 3.6 38.4 88 1.7 35.1
16:05 1014 29.94 843 24.89 3.6 38.5 86 1.5 34.7
16:10 1014 29.94 843 24.89 3.4 38.2 87 1.4 34.6
16:15 1014 29.94 843 24.89 3.5 38.3 87 1.6 34.9
16:20 1014 29.94 843 24.89 3.7 38.7 85 1.5 34.7
16:25 1014 29.94 843 24.89 3.9 39 85 1.7 35
16:30 1014 29.94 843 24.89 4 39.3 83 1.5 34.7
16:35 1014 29.94 844 24.92 4 39.2 84 1.5 34.8
16:40 1014 29.94 844 24.92 3.8 38.9 86 1.6 35
16:45 1014 29.94 844 24.92 3.9 39 85 1.7 35
16:50 1015 29.97 844 24.92 3.7 38.7 87 1.7 35.1
16:55 1015 29.97 844 24.92 3.6 38.5 88 1.8 35.2
17:00 1015 29.97 844 24.92 3.7 38.6 85 1.4 34.5
17:05 1015 29.97 844 24.92 3.6 38.4 89 1.9 35.4
17:10 1015 29.97 844 24.92 3.4 38.1 90 1.9 35.3
17:15 1015 29.97 844 24.92 3.1 37.7 89 1.6 34.8
17:20 1015 29.97 844 24.92 2.9 37.3 91 1.5 34.8
17:25 1015 29.97 844 24.92 2.9 37.2 92 1.7 35
17:30 1015 29.97 844 24.92 2.8 37.1 92 1.7 35.1
17:35 1015 29.97 844 24.92 2.9 37.3 92 1.7 35.1
17:40 1015 29.97 844 24.92 3 37.4 91 1.7 35.1
17:45 1015 29.97 844 24.92 3 37.3 91 1.7 35
17:50 1015 29.97 844 24.92 3 37.4 91 1.6 34.9
17:55 1015 29.97 844 24.92 3 37.4 92 1.7 35.1
18:00 1015 29.97 845 24.95 3 37.5 92 1.8 35.2
18:05 1015 29.97 845 24.95 2.9 37.2 91 1.6 34.9
18:10 1015 29.97 845 24.95 2.9 37.3 91 1.6 34.9
18:15 1016 30 845 24.95 2.9 37.2 91 1.6 34.9
18:20 1016 30 845 24.95 2.8 37 92 1.6 34.8
18:25 1016 30 845 24.95 2.8 37 91 1.5 34.7
18:30 1016 30 845 24.95 2.8 37.1 91 1.5 34.8
18:35 1016 30 845 24.95 2.8 37.1 91 1.4 34.6
18:40 1016 30 845 24.95 2.7 36.9 91 1.4 34.5
18:45 1016 30 845 24.95 2.7 36.9 91 1.4 34.5
18:50 1016 30 845 24.95 2.6 36.6 91 1.2 34.2
18:55 1016 30 845 24.95 2.4 36.3 90 1 33.7
19:00 1016 30 846 24.98 2.2 35.9 91 0.8 33.5
19:05 1016 30 846 24.98 1.9 35.4 91 0.6 33
19:10 1017 30.03 846 24.98 1.6 34.9 92 0.4 32.7
19:15 1017 30.03 846 24.98 1.5 34.7 93 0.4 32.7
19:20 1017 30.03 846 24.98 1.5 34.6 93 0.4 32.7
19:25 1017 30.03 846 24.98 1.5 34.7 93 0.4 32.8
19:30 1017 30.03 846 24.98 1.5 34.7 92 0.4 32.7
19:35 1017 30.03 846 24.98 1.4 34.6 92 0.3 32.6
19:40 1017 30.03 846 24.98 1.2 34.2 92 0.1 32.2
19:45 1017 30.03 846 24.98 1 33.8 93 0 32
19:50 1017 30.03 846 24.98 0.9 33.6 94 -0 32
19:55 1017 30.03 846 24.98 0.9 33.6 94 -0 31.9
20:00 1017 30.03 847 25.01 0.9 33.6 94 -0.1 31.9
20:05 1017 30.03 847 25.01 0.9 33.6 94 -0 32
20:10 1017 30.03 847 25.01 0.9 33.6 94 -0 32
20:15 1018 30.06 847 25.01 1 33.8 93 0 32.1
20:20 1018 30.06 847 25.01 1.1 34 92 0 32
20:25 1018 30.06 847 25.01 1.3 34.4 91 0.1 32.1
20:30 1018 30.06 847 25.01 1.5 34.6 90 0 32.1
20:35 1018 30.06 847 25.01 1.5 34.8 90 0 32
20:40 1018 30.06 847 25.01 1.6 35 89 0.1 32.2
20:45 1018 30.06 847 25.01 1.7 35 89 -0 32
20:50 1018 30.06 847 25.01 1.8 35.2 88 0 32
20:55 1018 30.06 847 25.01 1.8 35.2 88 0.1 32.1
21:00 1018 30.06 847 25.01 1.8 35.2 88 0 32.1
21:05 1018 30.06 847 25.01 1.8 35.2 88 -0 32
21:10 1018 30.06 848 25.04 1.8 35.2 87 -0.2 31.7
21:15 1019 30.09 848 25.04 1.8 35.3 87 -0.1 31.8
21:20 1019 30.09 848 25.04 1.8 35.3 87 -0.1 31.9
21:25 1019 30.09 848 25.04 1.8 35.3 87 -0.1 31.8
21:30 1019 30.09 848 25.04 2 35.5 86 -0.2 31.7
21:35 1019 30.09 848 25.04 2 35.6 85 -0.3 31.5
21:40 1019 30.09 848 25.04 2 35.7 86 -0.1 31.8
21:45 1019 30.09 848 25.04 2 35.6 86 -0.1 31.8
21:50 1019 30.09 848 25.04 2 35.6 86 -0.1 31.7
21:55 1019 30.09 848 25.04 2 35.6 85 -0.2 31.6
22:00 1019 30.09 848 25.04 2 35.7 83 -0.6 30.9
22:05 1019 30.09 848 25.04 2.2 35.9 81 -0.7 30.7
22:10 1019 30.09 848 25.04 2.2 36 82 -0.5 31.1
22:15 1019 30.09 848 25.04 2.2 35.9 82 -0.6 30.8
22:20 1019 30.09 848 25.04 2.2 35.9 83 -0.4 31.2
22:25 1019 30.09 848 25.04 2.2 35.9 82 -0.6 30.9
22:30 1019 30.09 848 25.04 2.2 35.9 82 -0.6 30.9
22:35 1019 30.09 848 25.04 2.1 35.9 83 -0.5 31.2
22:40 1019 30.09 848 25.04 2.1 35.7 82 -0.6 30.8
22:45 1019 30.09 848 25.04 2 35.7 82 -0.7 30.7
22:50 1019 30.09 848 25.04 2 35.6 82 -0.7 30.7
22:55 1019 30.09 848 25.04 1.9 35.4 83 -0.7 30.7
23:00 1019 30.09 848 25.04 1.8 35.3 82 -0.9 30.5
23:05 1019 30.09 848 25.04 1.8 35.3 82 -1 30.3
23:10 1019 30.09 848 25.04 1.9 35.4 81 -1 30.2
23:15 1019 30.09 848 25.04 1.9 35.5 81 -1 30.1
23:20 1019 30.09 848 25.04 1.9 35.5 81 -0.9 30.3
23:25 1019 30.09 848 25.04 1.9 35.4 82 -0.9 30.3
23:30 1019 30.09 848 25.04 1.9 35.4 81 -1 30.1
23:35 1019 30.09 848 25.04 1.8 35.3 81 -1.1 30.1
23:40 1019 30.09 848 25.04 1.8 35.2 82 -1 30.3
23:45 1019 30.09 848 25.04 1.7 35.1 82 -1 30.2
23:50 1019 30.09 848 25.04 1.7 35 82 -1 30.2
23:55 1019 30.09 848 25.04 1.6 34.9 82 -1.1 30.1
24:00 1019 30.09 848 25.04 1.6 34.8 83 -1.1 30.1